createdAt,value
2022-12-13T00:02:10.090Z,81.63
2022-12-13T00:07:12.845Z,95.60
2022-12-13T00:12:16.145Z,84.25
2022-12-13T00:17:20.643Z,74.22
2022-12-13T00:22:23.350Z,86.78
2022-12-13T00:27:26.121Z,87.60
2022-12-13T00:32:30.540Z,77.10
2022-12-13T00:37:33.241Z,74.90
2022-12-13T00:42:36.191Z,77.20
2022-12-13T00:47:40.428Z,80.28
2022-12-13T00:52:43.241Z,82.68
2022-12-13T00:57:46.018Z,91.70
2022-12-13T01:02:50.157Z,92.43
2022-12-13T01:07:52.902Z,84.60
2022-12-13T01:12:55.714Z,91.40
2022-12-13T01:17:59.849Z,98.75
2022-12-13T01:23:02.874Z,80.57
2022-12-13T01:28:06.125Z,89.47
2022-12-13T01:33:14.042Z,77.03
2022-12-13T01:38:17.426Z,90.15
2022-12-13T01:43:20.319Z,81.88
2022-12-13T01:48:29.866Z,84.55
2022-12-13T01:53:36.512Z,76.78
2022-12-13T02:03:44.395Z,74.05
2022-12-13T02:08:47.765Z,73.75
2022-12-13T02:13:50.532Z,79.70
2022-12-13T02:19:14.707Z,74.13
2022-12-13T02:24:46.939Z,87.85
2022-12-13T02:30:22.010Z,77.78
2022-12-13T02:35:29.540Z,73.57
2022-12-13T02:40:35.798Z,76.45
2022-12-13T02:45:45.485Z,58.70
2022-12-13T02:50:52.040Z,76.47
2022-12-13T02:55:54.811Z,57.92
2022-12-13T03:01:30.241Z,65.80
2022-12-13T03:06:40.724Z,79.30
2022-12-13T03:12:16.890Z,89.00
2022-12-13T03:17:23.218Z,76.40
2022-12-13T03:22:26.138Z,83.60
2022-12-13T03:27:29.103Z,73.75
2022-12-13T03:32:33.402Z,47.03
2022-12-13T03:37:36.277Z,62.47
2022-12-13T03:42:39.342Z,61.65
2022-12-13T03:47:43.516Z,64.78
2022-12-13T03:52:47.570Z,66.88
2022-12-13T03:57:50.365Z,61.17
2022-12-13T04:02:54.666Z,70.25
2022-12-13T04:08:00.654Z,57.60
2022-12-13T04:13:21.541Z,70.68
2022-12-13T04:18:25.700Z,68.00
2022-12-13T04:23:28.601Z,67.57
2022-12-13T04:28:32.087Z,54.28
2022-12-13T04:33:36.263Z,50.97
2022-12-13T04:38:39.005Z,57.95
2022-12-13T04:43:41.752Z,60.85
2022-12-13T04:48:45.825Z,42.00
2022-12-13T04:53:48.674Z,52.30
2022-12-13T04:58:51.515Z,46.17
2022-12-13T05:03:55.588Z,55.75
2022-12-13T05:09:00.795Z,53.45
2022-12-13T05:14:04.128Z,52.08
2022-12-13T05:19:08.484Z,65.97
2022-12-13T05:24:11.396Z,62.58
2022-12-13T05:29:14.202Z,58.83
2022-12-13T05:34:18.635Z,66.60
2022-12-13T05:39:28.383Z,59.53
2022-12-13T05:44:32.877Z,57.70
2022-12-13T05:49:37.048Z,69.00
2022-12-13T05:54:42.989Z,67.82
2022-12-13T05:59:45.841Z,56.85
2022-12-13T06:04:50.917Z,60.83
2022-12-13T06:09:53.704Z,53.70
2022-12-13T06:15:21.958Z,63.42
2022-12-13T06:20:27.913Z,49.00
2022-12-13T06:25:32.110Z,57.33
2022-12-13T06:30:35.086Z,54.75
2022-12-13T06:35:48.278Z,63.33
2022-12-13T06:40:51.177Z,56.58
2022-12-13T06:45:53.938Z,56.28
2022-12-13T06:51:01.678Z,68.47
2022-12-13T06:56:05.906Z,71.97
2022-12-13T07:01:14.807Z,75.50
2022-12-13T07:06:22.077Z,67.93
2022-12-13T07:11:28.974Z,69.45
2022-12-13T07:16:31.819Z,73.78
2022-12-13T07:21:36.456Z,62.95
2022-12-13T07:26:39.570Z,71.95
2022-12-13T07:31:44.455Z,75.35
2022-12-13T07:36:50.334Z,75.75
2022-12-13T07:41:55.723Z,77.00
2022-12-13T07:46:58.636Z,74.75
2022-12-13T07:52:04.447Z,75.45
2022-12-13T07:57:07.721Z,76.45
2022-12-13T08:02:14.305Z,79.95
2022-12-13T08:07:18.900Z,87.35
2022-12-13T08:12:22.665Z,82.38
2022-12-13T08:17:26.765Z,84.72
2022-12-13T08:22:36.077Z,77.97
2022-12-13T08:27:39.312Z,82.10
2022-12-13T08:32:46.502Z,103.75
2022-12-13T08:37:54.439Z,90.57
2022-12-13T08:48:03.598Z,92.63
2022-12-13T08:53:07.697Z,94.78
2022-12-13T08:58:11.790Z,103.90
2022-12-13T09:03:14.720Z,69.85
2022-12-13T09:08:24.823Z,70.47
2022-12-13T09:13:31.885Z,65.25
2022-12-13T09:18:36.482Z,67.40
2022-12-13T09:23:45.842Z,56.72
2022-12-13T09:28:49.314Z,60.53
2022-12-13T09:33:52.237Z,50.58
2022-12-13T09:38:58.992Z,59.55
2022-12-13T09:44:06.187Z,50.28
2022-12-13T09:54:51.021Z,47.22
2022-12-13T10:00:01.007Z,45.58
2022-12-13T10:05:22.826Z,57.30
2022-12-13T10:10:29.090Z,53.72
2022-12-13T10:15:37.132Z,54.20
2022-12-13T10:20:40.102Z,59.67
2022-12-13T10:25:51.575Z,57.67
2022-12-13T10:30:56.551Z,52.28
2022-12-13T10:36:09.108Z,53.25
2022-12-13T10:41:38.489Z,65.07
2022-12-13T10:46:51.898Z,59.55
2022-12-13T10:52:03.835Z,52.30
2022-12-13T10:57:12.701Z,55.75
2022-12-13T11:02:37.534Z,70.45
2022-12-13T11:07:40.479Z,66.00
2022-12-13T11:12:44.930Z,68.75
2022-12-13T11:17:51.276Z,58.55
2022-12-13T11:23:02.868Z,55.33
2022-12-13T11:28:26.555Z,59.75
2022-12-13T11:33:48.287Z,67.70
2022-12-13T11:39:05.138Z,58.22
2022-12-13T11:44:17.576Z,60.83
2022-12-13T11:49:34.555Z,57.88
2022-12-13T11:54:52.047Z,53.80
2022-12-13T12:00:15.423Z,49.70
2022-12-13T12:05:42.498Z,93.28
2022-12-13T12:10:50.385Z,104.60
2022-12-13T12:16:07.884Z,59.28
2022-12-13T12:21:37.287Z,45.65
2022-12-13T12:27:00.706Z,45.38
2022-12-13T12:32:11.957Z,56.97
2022-12-13T12:37:25.958Z,51.40
2022-12-13T12:43:14.467Z,45.80
2022-12-13T12:49:00.618Z,37.28
2022-12-13T12:54:14.081Z,42.15
2022-12-13T12:59:27.893Z,36.33
2022-12-13T13:04:39.119Z,47.72
2022-12-13T13:09:43.484Z,41.30
2022-12-13T13:14:46.695Z,40.40
2022-12-13T13:20:07.832Z,48.05
2022-12-13T13:25:25.810Z,34.05
2022-12-13T13:30:30.744Z,35.63
2022-12-13T13:35:54.897Z,35.80
2022-12-13T13:40:57.955Z,34.20
2022-12-13T13:46:11.086Z,40.88
2022-12-13T13:51:49.338Z,39.83
2022-12-13T13:58:08.243Z,39.92
2022-12-13T14:03:54.827Z,38.85
2022-12-13T14:09:15.930Z,47.63
2022-12-13T14:15:11.576Z,47.97
2022-12-13T14:20:42.222Z,44.00
2022-12-13T14:26:05.185Z,40.00
2022-12-13T14:31:21.602Z,52.75
2022-12-13T14:36:29.983Z,55.65
2022-12-13T14:41:45.942Z,66.95
2022-12-13T14:46:51.308Z,50.60
2022-12-13T14:52:01.268Z,43.88
2022-12-13T14:57:06.346Z,50.35
2022-12-13T15:02:17.090Z,37.15
2022-12-13T15:07:38.072Z,38.47
2022-12-13T15:12:43.806Z,24.80
2022-12-13T15:17:46.605Z,40.70
2022-12-13T15:23:06.951Z,39.47
2022-12-13T15:28:21.217Z,48.45
2022-12-13T15:33:34.357Z,41.75
2022-12-13T15:38:48.733Z,44.58
2022-12-13T15:43:55.059Z,32.05
2022-12-13T15:48:59.935Z,44.80
2022-12-13T15:54:05.862Z,39.95
2022-12-13T15:59:26.026Z,36.70
2022-12-13T16:04:31.197Z,35.72
2022-12-13T16:09:38.166Z,47.65
2022-12-13T16:14:49.324Z,45.47
2022-12-13T16:19:56.467Z,53.15
2022-12-13T16:25:00.412Z,46.95
2022-12-13T16:30:13.169Z,53.95
2022-12-13T16:35:16.477Z,56.42
2022-12-13T16:40:26.209Z,52.55
2022-12-13T16:45:41.691Z,54.80
2022-12-13T16:50:48.050Z,58.55
2022-12-13T16:56:00.256Z,59.33
2022-12-13T17:01:09.792Z,66.70
2022-12-13T17:06:15.514Z,74.82
2022-12-13T17:11:18.695Z,55.80
2022-12-13T17:16:22.966Z,53.80
2022-12-13T17:21:27.340Z,58.13
2022-12-13T17:26:30.490Z,61.30
2022-12-13T17:31:36.019Z,60.60
2022-12-13T17:36:39.142Z,64.97
2022-12-13T17:41:41.859Z,48.80
2022-12-13T17:46:47.576Z,60.38
2022-12-13T17:51:58.799Z,48.72
2022-12-13T17:57:01.517Z,70.55
2022-12-13T18:02:05.702Z,52.38
2022-12-13T18:07:09.101Z,51.17
2022-12-13T18:12:12.653Z,52.88
2022-12-13T18:17:18.990Z,56.78
2022-12-13T18:22:21.937Z,53.60
2022-12-13T18:27:24.854Z,51.78
2022-12-13T18:32:29.179Z,50.97
2022-12-13T18:37:37.076Z,49.75
2022-12-13T18:42:39.902Z,62.65
2022-12-13T18:47:46.970Z,53.80
2022-12-13T18:52:49.775Z,39.92
2022-12-13T18:57:52.649Z,44.03
2022-12-13T19:02:57.001Z,41.60
2022-12-13T19:07:59.711Z,40.72
2022-12-13T19:13:02.477Z,37.20
2022-12-13T19:18:07.067Z,55.35
2022-12-13T19:23:10.006Z,46.80
2022-12-13T19:28:13.946Z,43.50
2022-12-13T19:33:18.412Z,44.40
2022-12-13T19:38:21.318Z,47.63
2022-12-13T19:43:24.566Z,40.72
2022-12-13T19:48:29.210Z,37.97
2022-12-13T19:53:33.459Z,50.33
2022-12-13T19:58:36.454Z,37.88
2022-12-13T20:03:44.159Z,41.17
2022-12-13T20:08:48.174Z,47.20
2022-12-13T20:13:54.294Z,46.72
2022-12-13T20:18:59.846Z,40.47
2022-12-13T20:24:02.979Z,51.70
2022-12-13T20:29:06.488Z,23.80
2022-12-13T20:34:15.129Z,44.75
2022-12-13T20:39:17.913Z,39.85
2022-12-13T20:44:20.904Z,32.78
2022-12-13T20:49:25.117Z,50.10
2022-12-13T20:54:27.911Z,48.22
2022-12-13T20:59:30.636Z,40.40
2022-12-13T21:04:34.806Z,41.78
2022-12-13T21:09:40.829Z,41.78
2022-12-13T21:14:45.339Z,43.95
2022-12-13T21:19:52.378Z,36.37
2022-12-13T21:24:55.418Z,37.38
2022-12-13T21:29:58.164Z,43.63
2022-12-13T21:35:02.294Z,35.63
2022-12-13T21:40:06.637Z,41.38
2022-12-13T21:45:09.873Z,42.63
2022-12-13T21:50:14.063Z,38.50
2022-12-13T21:55:38.369Z,31.83
2022-12-13T22:00:39.885Z,35.63
2022-12-13T22:05:44.569Z,36.83
2022-12-13T22:11:02.084Z,29.30
2022-12-13T22:16:06.041Z,41.78
2022-12-13T22:21:10.175Z,39.90
2022-12-13T22:26:12.926Z,29.25
2022-12-13T22:31:16.098Z,33.22
2022-12-13T22:36:20.196Z,29.38
2022-12-13T22:41:24.233Z,39.33
2022-12-13T22:46:28.793Z,40.25
2022-12-13T22:51:33.028Z,36.17
2022-12-13T22:56:36.210Z,37.03
2022-12-13T23:01:40.556Z,30.90
2022-12-13T23:06:44.736Z,33.42
2022-12-13T23:12:04.922Z,28.90
2022-12-13T23:17:08.078Z,31.60
2022-12-13T23:22:13.833Z,26.48
2022-12-13T23:27:16.651Z,31.20
2022-12-13T23:32:20.467Z,28.83
2022-12-13T23:37:24.614Z,34.80
2022-12-13T23:42:30.005Z,23.88
2022-12-13T23:47:32.785Z,24.10
2022-12-13T23:52:37.673Z,29.75
2022-12-13T23:57:40.372Z,18.92
